RJSC/GAJ METAR and TAF weather

Enter ICAO airport designator
Station Type Date Time Source
RJSC METAR 2019/12/06 02:00 UTC NOAA

RJSC 060200Z 23003KT 180V270 3000 -SHSN FEW003 SCT007 BKN010 01/00 Q1025


Station Type Date Time Source
RJSC Decoded METAR 2019/12/06 02:00 UTC NOAA

Yamagata Airport, Japan (RJSC) 38-25N 140-22E 108M
Dec 05, 2019 - 09:00 PM EST / 2019.12.06 0200 UTC
Wind: from the SW (230 degrees) at 3 MPH (3 KT) (direction variable):0
Visibility: 1 mile(s):0
Sky conditions: mostly cloudy
Weather: light snow showers
Temperature: 33 F (1 C)
Dew Point: 32 F (0 C)
Relative Humidity: 93%
Pressure (altimeter): 30.27 in. Hg (1025 hPa)
ob: RJSC 060200Z 23003KT 180V270 3000 -SHSN FEW003 SCT007 BKN010 01/00 Q1025
cycle: 2

Station Type Date Time Source
RJSC TAF UTC NOAA

Error!

Example: see airport list